Terminal Aerodrome Forecast
Issued by NWS Los Angeles, CA

Home | Current Version | Previous Version | Text Only | Print | Product List | Glossary On
Versions: 1 2 3 4 5 6 7 8 9 10 11 12
903
FTUS46 KLOX 071740
TAFSMX
TAF
KSMX 071740Z 0718/0818 00000KT P6SM SKC
     FM071900 35007KT P6SM SKC
     FM072200 31007KT P6SM SKC
     FM080300 VRB05KT P6SM SKC=

USA.gov is the U.S. government's official web portal to all federal, state and local government web resources and services.